sensor_id;sensor_type;location;lat;lon;timestamp;P1;durP1;ratioP1;P2;durP2;ratioP2
9294;SDS011;4686;44.496;11.324;2024-01-30T00:00:25;59.47;;;39.83;;
9294;SDS011;4686;44.496;11.324;2024-01-30T00:02:53;63.77;;;42.70;;
9294;SDS011;4686;44.496;11.324;2024-01-30T00:05:20;56.83;;;40.50;;
9294;SDS011;4686;44.496;11.324;2024-01-30T00:07:48;59.77;;;39.53;;
9294;SDS011;4686;44.496;11.324;2024-01-30T00:10:19;61.23;;;41.67;;
9294;SDS011;4686;44.496;11.324;2024-01-30T00:12:46;62.43;;;41.90;;
9294;SDS011;4686;44.496;11.324;2024-01-30T00:15:14;64.07;;;40.67;;
9294;SDS011;4686;44.496;11.324;2024-01-30T00:17:41;58.47;;;41.20;;
9294;SDS011;4686;44.496;11.324;2024-01-30T00:20:09;66.80;;;41.70;;
9294;SDS011;4686;44.496;11.324;2024-01-30T00:22:37;64.37;;;41.10;;
9294;SDS011;4686;44.496;11.324;2024-01-30T00:25:04;63.47;;;41.17;;
9294;SDS011;4686;44.496;11.324;2024-01-30T00:27:35;61.30;;;41.27;;
9294;SDS011;4686;44.496;11.324;2024-01-30T00:30:07;61.73;;;41.07;;
9294;SDS011;4686;44.496;11.324;2024-01-30T00:32:35;60.70;;;40.47;;
9294;SDS011;4686;44.496;11.324;2024-01-30T00:35:05;57.03;;;39.70;;
9294;SDS011;4686;44.496;11.324;2024-01-30T00:37:32;53.60;;;38.40;;
9294;SDS011;4686;44.496;11.324;2024-01-30T00:40:00;60.50;;;40.37;;
9294;SDS011;4686;44.496;11.324;2024-01-30T00:42:29;58.10;;;39.10;;
9294;SDS011;4686;44.496;11.324;2024-01-30T00:44:58;61.03;;;39.70;;
9294;SDS011;4686;44.496;11.324;2024-01-30T00:47:25;55.30;;;38.40;;
9294;SDS011;4686;44.496;11.324;2024-01-30T00:49:54;59.67;;;40.70;;
9294;SDS011;4686;44.496;11.324;2024-01-30T00:52:22;58.17;;;39.60;;
9294;SDS011;4686;44.496;11.324;2024-01-30T00:54:49;54.60;;;38.60;;
9294;SDS011;4686;44.496;11.324;2024-01-30T00:57:16;53.20;;;38.60;;
9294;SDS011;4686;44.496;11.324;2024-01-30T00:59:44;54.33;;;37.70;;
9294;SDS011;4686;44.496;11.324;2024-01-30T01:02:12;51.77;;;37.60;;
9294;SDS011;4686;44.496;11.324;2024-01-30T01:04:42;55.33;;;36.03;;
9294;SDS011;4686;44.496;11.324;2024-01-30T01:07:09;50.90;;;34.97;;
9294;SDS011;4686;44.496;11.324;2024-01-30T01:09:37;50.73;;;34.67;;
9294;SDS011;4686;44.496;11.324;2024-01-30T01:12:05;52.20;;;36.40;;
9294;SDS011;4686;44.496;11.324;2024-01-30T01:14:32;45.33;;;33.07;;
9294;SDS011;4686;44.496;11.324;2024-01-30T01:16:59;48.83;;;34.03;;
9294;SDS011;4686;44.496;11.324;2024-01-30T01:19:28;48.70;;;32.67;;
9294;SDS011;4686;44.496;11.324;2024-01-30T01:21:55;47.90;;;34.30;;
9294;SDS011;4686;44.496;11.324;2024-01-30T01:24:23;49.00;;;31.93;;
9294;SDS011;4686;44.496;11.324;2024-01-30T01:26:51;45.50;;;32.50;;
9294;SDS011;4686;44.496;11.324;2024-01-30T01:29:18;48.07;;;34.53;;
9294;SDS011;4686;44.496;11.324;2024-01-30T01:31:46;49.70;;;35.70;;
9294;SDS011;4686;44.496;11.324;2024-01-30T01:34:14;48.00;;;36.47;;
9294;SDS011;4686;44.496;11.324;2024-01-30T01:36:43;52.13;;;37.30;;
9294;SDS011;4686;44.496;11.324;2024-01-30T01:39:10;50.60;;;36.50;;
9294;SDS011;4686;44.496;11.324;2024-01-30T01:41:37;51.80;;;37.93;;
9294;SDS011;4686;44.496;11.324;2024-01-30T01:44:05;58.27;;;38.20;;
9294;SDS011;4686;44.496;11.324;2024-01-30T01:46:32;52.93;;;36.67;;
9294;SDS011;4686;44.496;11.324;2024-01-30T01:49:01;56.20;;;37.33;;
9294;SDS011;4686;44.496;11.324;2024-01-30T01:51:29;54.20;;;38.23;;
9294;SDS011;4686;44.496;11.324;2024-01-30T01:53:58;54.10;;;39.77;;
9294;SDS011;4686;44.496;11.324;2024-01-30T01:56:28;52.43;;;37.87;;
9294;SDS011;4686;44.496;11.324;2024-01-30T01:58:56;54.67;;;38.80;;
9294;SDS011;4686;44.496;11.324;2024-01-30T02:01:26;54.73;;;37.23;;
9294;SDS011;4686;44.496;11.324;2024-01-30T02:03:54;50.43;;;36.97;;
9294;SDS011;4686;44.496;11.324;2024-01-30T02:06:21;51.57;;;36.00;;
9294;SDS011;4686;44.496;11.324;2024-01-30T02:08:50;48.63;;;37.00;;
9294;SDS011;4686;44.496;11.324;2024-01-30T02:11:18;51.27;;;36.97;;
9294;SDS011;4686;44.496;11.324;2024-01-30T02:13:46;49.87;;;34.90;;
9294;SDS011;4686;44.496;11.324;2024-01-30T02:16:14;52.07;;;35.73;;
9294;SDS011;4686;44.496;11.324;2024-01-30T02:18:42;49.97;;;35.50;;
9294;SDS011;4686;44.496;11.324;2024-01-30T02:21:13;49.03;;;35.50;;
9294;SDS011;4686;44.496;11.324;2024-01-30T02:23:41;54.40;;;36.97;;
9294;SDS011;4686;44.496;11.324;2024-01-30T02:26:10;50.73;;;36.70;;
9294;SDS011;4686;44.496;11.324;2024-01-30T02:28:37;53.70;;;35.80;;
9294;SDS011;4686;44.496;11.324;2024-01-30T02:31:05;57.23;;;35.47;;
9294;SDS011;4686;44.496;11.324;2024-01-30T02:33:33;48.80;;;35.03;;
9294;SDS011;4686;44.496;11.324;2024-01-30T02:36:01;48.83;;;33.47;;
9294;SDS011;4686;44.496;11.324;2024-01-30T02:38:29;52.17;;;34.23;;
9294;SDS011;4686;44.496;11.324;2024-01-30T02:40:57;46.23;;;34.17;;
9294;SDS011;4686;44.496;11.324;2024-01-30T02:43:25;46.63;;;33.57;;
9294;SDS011;4686;44.496;11.324;2024-01-30T02:45:52;55.23;;;33.80;;
9294;SDS011;4686;44.496;11.324;2024-01-30T02:48:19;50.17;;;33.23;;
9294;SDS011;4686;44.496;11.324;2024-01-30T02:50:46;48.03;;;34.77;;
9294;SDS011;4686;44.496;11.324;2024-01-30T02:53:14;45.53;;;34.07;;
9294;SDS011;4686;44.496;11.324;2024-01-30T02:55:43;48.63;;;35.37;;
9294;SDS011;4686;44.496;11.324;2024-01-30T02:58:10;50.20;;;34.23;;
9294;SDS011;4686;44.496;11.324;2024-01-30T03:00:37;45.10;;;32.70;;
9294;SDS011;4686;44.496;11.324;2024-01-30T03:03:04;45.50;;;33.90;;
9294;SDS011;4686;44.496;11.324;2024-01-30T03:05:32;46.87;;;33.57;;
9294;SDS011;4686;44.496;11.324;2024-01-30T03:07:59;42.50;;;32.07;;
9294;SDS011;4686;44.496;11.324;2024-01-30T03:10:26;47.50;;;32.90;;
9294;SDS011;4686;44.496;11.324;2024-01-30T03:12:55;41.13;;;33.57;;
9294;SDS011;4686;44.496;11.324;2024-01-30T03:15:22;43.60;;;32.43;;
9294;SDS011;4686;44.496;11.324;2024-01-30T03:17:50;44.00;;;31.93;;
9294;SDS011;4686;44.496;11.324;2024-01-30T03:20:17;38.60;;;30.83;;
9294;SDS011;4686;44.496;11.324;2024-01-30T03:22:44;41.27;;;31.00;;
9294;SDS011;4686;44.496;11.324;2024-01-30T03:25:12;37.30;;;30.37;;
9294;SDS011;4686;44.496;11.324;2024-01-30T03:27:39;39.70;;;30.97;;
9294;SDS011;4686;44.496;11.324;2024-01-30T03:30:09;44.57;;;32.57;;
9294;SDS011;4686;44.496;11.324;2024-01-30T03:32:36;41.30;;;30.67;;
9294;SDS011;4686;44.496;11.324;2024-01-30T03:35:04;40.03;;;31.60;;
9294;SDS011;4686;44.496;11.324;2024-01-30T03:37:31;42.00;;;31.83;;
9294;SDS011;4686;44.496;11.324;2024-01-30T03:39:58;42.50;;;30.17;;
9294;SDS011;4686;44.496;11.324;2024-01-30T03:42:26;45.27;;;32.40;;
9294;SDS011;4686;44.496;11.324;2024-01-30T03:44:54;40.90;;;30.60;;
9294;SDS011;4686;44.496;11.324;2024-01-30T03:47:22;41.67;;;32.60;;
9294;SDS011;4686;44.496;11.324;2024-01-30T03:49:50;41.50;;;32.30;;
9294;SDS011;4686;44.496;11.324;2024-01-30T03:52:17;41.70;;;30.97;;
9294;SDS011;4686;44.496;11.324;2024-01-30T03:54:45;40.40;;;30.87;;
9294;SDS011;4686;44.496;11.324;2024-01-30T03:57:12;38.73;;;30.60;;
9294;SDS011;4686;44.496;11.324;2024-01-30T03:59:41;38.20;;;31.30;;
9294;SDS011;4686;44.496;11.324;2024-01-30T04:02:09;39.43;;;30.97;;
9294;SDS011;4686;44.496;11.324;2024-01-30T04:04:39;40.73;;;30.73;;
9294;SDS011;4686;44.496;11.324;2024-01-30T04:07:07;35.33;;;30.33;;
9294;SDS011;4686;44.496;11.324;2024-01-30T04:09:34;33.80;;;28.70;;
9294;SDS011;4686;44.496;11.324;2024-01-30T04:12:02;36.27;;;29.80;;
9294;SDS011;4686;44.496;11.324;2024-01-30T04:14:29;33.00;;;28.43;;
9294;SDS011;4686;44.496;11.324;2024-01-30T04:16:56;37.87;;;30.27;;
9294;SDS011;4686;44.496;11.324;2024-01-30T04:19:24;36.03;;;30.60;;
9294;SDS011;4686;44.496;11.324;2024-01-30T04:21:53;42.00;;;31.13;;
9294;SDS011;4686;44.496;11.324;2024-01-30T04:24:20;37.10;;;30.30;;
9294;SDS011;4686;44.496;11.324;2024-01-30T04:26:47;38.37;;;29.60;;
9294;SDS011;4686;44.496;11.324;2024-01-30T04:29:15;42.77;;;30.57;;
9294;SDS011;4686;44.496;11.324;2024-01-30T04:31:42;37.20;;;29.80;;
9294;SDS011;4686;44.496;11.324;2024-01-30T04:34:10;37.50;;;29.33;;
9294;SDS011;4686;44.496;11.324;2024-01-30T04:36:43;36.40;;;30.90;;
9294;SDS011;4686;44.496;11.324;2024-01-30T04:39:12;38.53;;;29.47;;
9294;SDS011;4686;44.496;11.324;2024-01-30T04:41:40;34.50;;;29.53;;
9294;SDS011;4686;44.496;11.324;2024-01-30T04:44:08;37.03;;;30.60;;
9294;SDS011;4686;44.496;11.324;2024-01-30T04:46:35;36.70;;;29.47;;
9294;SDS011;4686;44.496;11.324;2024-01-30T04:49:03;38.67;;;29.73;;
9294;SDS011;4686;44.496;11.324;2024-01-30T04:51:30;41.90;;;30.23;;
9294;SDS011;4686;44.496;11.324;2024-01-30T04:53:58;35.93;;;30.97;;
9294;SDS011;4686;44.496;11.324;2024-01-30T04:56:27;35.50;;;29.00;;
9294;SDS011;4686;44.496;11.324;2024-01-30T04:58:56;40.93;;;31.93;;
9294;SDS011;4686;44.496;11.324;2024-01-30T05:01:23;39.20;;;30.77;;
9294;SDS011;4686;44.496;11.324;2024-01-30T05:03:50;40.80;;;30.27;;
9294;SDS011;4686;44.496;11.324;2024-01-30T05:06:23;38.60;;;31.07;;
9294;SDS011;4686;44.496;11.324;2024-01-30T05:08:51;41.70;;;32.93;;
9294;SDS011;4686;44.496;11.324;2024-01-30T05:11:18;35.63;;;29.50;;
9294;SDS011;4686;44.496;11.324;2024-01-30T05:13:47;36.40;;;28.40;;
9294;SDS011;4686;44.496;11.324;2024-01-30T05:16:15;36.07;;;29.03;;
9294;SDS011;4686;44.496;11.324;2024-01-30T05:18:42;41.87;;;30.60;;
9294;SDS011;4686;44.496;11.324;2024-01-30T05:21:10;39.63;;;30.63;;
9294;SDS011;4686;44.496;11.324;2024-01-30T05:23:37;37.73;;;30.60;;
9294;SDS011;4686;44.496;11.324;2024-01-30T05:26:06;38.70;;;29.30;;
9294;SDS011;4686;44.496;11.324;2024-01-30T05:28:34;40.20;;;31.20;;
9294;SDS011;4686;44.496;11.324;2024-01-30T05:31:03;37.53;;;29.80;;
9294;SDS011;4686;44.496;11.324;2024-01-30T05:33:30;37.70;;;31.43;;
9294;SDS011;4686;44.496;11.324;2024-01-30T05:35:57;35.67;;;30.47;;
9294;SDS011;4686;44.496;11.324;2024-01-30T05:38:25;35.30;;;30.13;;
9294;SDS011;4686;44.496;11.324;2024-01-30T05:40:52;41.40;;;31.53;;
9294;SDS011;4686;44.496;11.324;2024-01-30T05:43:20;40.37;;;31.97;;
9294;SDS011;4686;44.496;11.324;2024-01-30T05:45:47;41.60;;;31.87;;
9294;SDS011;4686;44.496;11.324;2024-01-30T05:48:16;38.23;;;32.30;;
9294;SDS011;4686;44.496;11.324;2024-01-30T05:50:43;40.50;;;30.20;;
9294;SDS011;4686;44.496;11.324;2024-01-30T05:53:11;38.10;;;30.73;;
9294;SDS011;4686;44.496;11.324;2024-01-30T05:55:38;41.33;;;31.97;;
9294;SDS011;4686;44.496;11.324;2024-01-30T05:58:06;39.00;;;31.50;;
9294;SDS011;4686;44.496;11.324;2024-01-30T06:00:34;41.30;;;32.63;;
9294;SDS011;4686;44.496;11.324;2024-01-30T06:03:02;42.13;;;33.10;;
9294;SDS011;4686;44.496;11.324;2024-01-30T06:05:31;45.57;;;34.50;;
9294;SDS011;4686;44.496;11.324;2024-01-30T06:08:02;45.00;;;33.40;;
9294;SDS011;4686;44.496;11.324;2024-01-30T06:10:28;41.13;;;33.70;;
9294;SDS011;4686;44.496;11.324;2024-01-30T06:12:55;41.70;;;32.90;;
9294;SDS011;4686;44.496;11.324;2024-01-30T06:15:23;42.50;;;33.33;;
9294;SDS011;4686;44.496;11.324;2024-01-30T06:17:54;45.63;;;34.10;;
9294;SDS011;4686;44.496;11.324;2024-01-30T06:20:22;42.10;;;31.50;;
9294;SDS011;4686;44.496;11.324;2024-01-30T06:22:53;42.60;;;32.53;;
9294;SDS011;4686;44.496;11.324;2024-01-30T06:25:22;44.07;;;34.63;;
9294;SDS011;4686;44.496;11.324;2024-01-30T06:27:49;43.60;;;33.67;;
9294;SDS011;4686;44.496;11.324;2024-01-30T06:30:17;42.43;;;33.40;;
9294;SDS011;4686;44.496;11.324;2024-01-30T06:32:44;41.00;;;32.03;;
9294;SDS011;4686;44.496;11.324;2024-01-30T06:35:11;44.57;;;32.93;;
9294;SDS011;4686;44.496;11.324;2024-01-30T06:37:38;40.03;;;33.37;;
9294;SDS011;4686;44.496;11.324;2024-01-30T06:40:08;45.57;;;34.50;;
9294;SDS011;4686;44.496;11.324;2024-01-30T06:42:35;42.13;;;33.10;;
9294;SDS011;4686;44.496;11.324;2024-01-30T06:45:03;49.43;;;33.67;;
9294;SDS011;4686;44.496;11.324;2024-01-30T06:47:30;53.33;;;33.30;;
9294;SDS011;4686;44.496;11.324;2024-01-30T06:49:57;50.27;;;32.53;;
9294;SDS011;4686;44.496;11.324;2024-01-30T06:52:25;45.23;;;33.27;;
9294;SDS011;4686;44.496;11.324;2024-01-30T06:54:52;44.00;;;34.60;;
9294;SDS011;4686;44.496;11.324;2024-01-30T06:57:21;52.20;;;33.37;;
9294;SDS011;4686;44.496;11.324;2024-01-30T06:59:48;42.60;;;32.70;;
9294;SDS011;4686;44.496;11.324;2024-01-30T07:02:15;42.40;;;31.87;;
9294;SDS011;4686;44.496;11.324;2024-01-30T07:04:42;44.80;;;33.60;;
9294;SDS011;4686;44.496;11.324;2024-01-30T07:07:13;43.33;;;33.03;;
9294;SDS011;4686;44.496;11.324;2024-01-30T07:09:40;44.63;;;35.07;;
9294;SDS011;4686;44.496;11.324;2024-01-30T07:12:08;50.47;;;35.20;;
9294;SDS011;4686;44.496;11.324;2024-01-30T07:14:36;45.07;;;34.00;;
9294;SDS011;4686;44.496;11.324;2024-01-30T07:17:04;52.03;;;35.30;;
9294;SDS011;4686;44.496;11.324;2024-01-30T07:19:32;45.60;;;34.13;;
9294;SDS011;4686;44.496;11.324;2024-01-30T07:22:00;42.43;;;34.10;;
9294;SDS011;4686;44.496;11.324;2024-01-30T07:24:27;43.87;;;31.33;;
9294;SDS011;4686;44.496;11.324;2024-01-30T07:29:33;50.97;;;34.37;;
9294;SDS011;4686;44.496;11.324;2024-01-30T07:32:04;40.47;;;31.60;;
9294;SDS011;4686;44.496;11.324;2024-01-30T07:34:31;48.30;;;34.67;;
9294;SDS011;4686;44.496;11.324;2024-01-30T07:36:59;42.33;;;33.10;;
9294;SDS011;4686;44.496;11.324;2024-01-30T07:39:27;47.67;;;34.80;;
9294;SDS011;4686;44.496;11.324;2024-01-30T07:41:54;44.23;;;33.40;;
9294;SDS011;4686;44.496;11.324;2024-01-30T07:44:21;47.90;;;33.50;;
9294;SDS011;4686;44.496;11.324;2024-01-30T07:46:50;44.83;;;36.27;;
9294;SDS011;4686;44.496;11.324;2024-01-30T07:49:21;45.87;;;33.33;;
9294;SDS011;4686;44.496;11.324;2024-01-30T07:51:48;42.90;;;33.13;;
9294;SDS011;4686;44.496;11.324;2024-01-30T07:54:16;41.63;;;34.03;;
9294;SDS011;4686;44.496;11.324;2024-01-30T07:56:45;47.03;;;32.60;;
9294;SDS011;4686;44.496;11.324;2024-01-30T07:59:13;56.90;;;35.03;;
9294;SDS011;4686;44.496;11.324;2024-01-30T08:01:40;40.67;;;31.13;;
9294;SDS011;4686;44.496;11.324;2024-01-30T08:04:08;44.20;;;33.13;;
9294;SDS011;4686;44.496;11.324;2024-01-30T08:06:37;46.93;;;32.87;;
9294;SDS011;4686;44.496;11.324;2024-01-30T08:09:04;52.17;;;35.60;;
9294;SDS011;4686;44.496;11.324;2024-01-30T08:11:32;46.07;;;34.27;;
9294;SDS011;4686;44.496;11.324;2024-01-30T08:13:59;45.77;;;36.57;;
9294;SDS011;4686;44.496;11.324;2024-01-30T08:16:27;46.93;;;35.77;;
9294;SDS011;4686;44.496;11.324;2024-01-30T08:18:55;55.30;;;34.93;;
9294;SDS011;4686;44.496;11.324;2024-01-30T08:21:22;45.57;;;33.70;;
9294;SDS011;4686;44.496;11.324;2024-01-30T08:23:51;49.90;;;33.13;;
9294;SDS011;4686;44.496;11.324;2024-01-30T08:26:19;44.53;;;32.70;;
9294;SDS011;4686;44.496;11.324;2024-01-30T08:28:46;43.37;;;31.83;;
9294;SDS011;4686;44.496;11.324;2024-01-30T08:31:14;42.97;;;31.97;;
9294;SDS011;4686;44.496;11.324;2024-01-30T08:33:41;43.03;;;31.97;;
9294;SDS011;4686;44.496;11.324;2024-01-30T08:36:08;44.67;;;31.37;;
9294;SDS011;4686;44.496;11.324;2024-01-30T08:38:36;52.43;;;32.37;;
9294;SDS011;4686;44.496;11.324;2024-01-30T08:41:04;47.60;;;32.10;;
9294;SDS011;4686;44.496;11.324;2024-01-30T08:43:31;49.93;;;32.97;;
9294;SDS011;4686;44.496;11.324;2024-01-30T08:45:59;45.03;;;32.80;;
9294;SDS011;4686;44.496;11.324;2024-01-30T08:48:26;45.43;;;33.60;;
9294;SDS011;4686;44.496;11.324;2024-01-30T08:50:53;45.20;;;32.20;;
9294;SDS011;4686;44.496;11.324;2024-01-30T08:53:21;49.83;;;32.17;;
9294;SDS011;4686;44.496;11.324;2024-01-30T08:55:48;48.00;;;33.47;;
9294;SDS011;4686;44.496;11.324;2024-01-30T08:58:16;47.60;;;33.50;;
9294;SDS011;4686;44.496;11.324;2024-01-30T09:00:44;50.23;;;34.03;;
9294;SDS011;4686;44.496;11.324;2024-01-30T09:03:12;47.57;;;33.60;;
9294;SDS011;4686;44.496;11.324;2024-01-30T09:05:39;47.63;;;32.63;;
9294;SDS011;4686;44.496;11.324;2024-01-30T09:08:06;51.37;;;34.10;;
9294;SDS011;4686;44.496;11.324;2024-01-30T09:10:33;45.57;;;33.10;;
9294;SDS011;4686;44.496;11.324;2024-01-30T09:13:01;46.80;;;32.63;;
9294;SDS011;4686;44.496;11.324;2024-01-30T09:15:30;59.33;;;34.73;;
9294;SDS011;4686;44.496;11.324;2024-01-30T09:17:57;47.13;;;31.07;;
9294;SDS011;4686;44.496;11.324;2024-01-30T09:20:24;47.57;;;32.80;;
9294;SDS011;4686;44.496;11.324;2024-01-30T09:22:53;45.60;;;32.70;;
9294;SDS011;4686;44.496;11.324;2024-01-30T09:25:21;52.33;;;34.60;;
9294;SDS011;4686;44.496;11.324;2024-01-30T09:27:48;49.30;;;33.30;;
9294;SDS011;4686;44.496;11.324;2024-01-30T09:30:16;46.17;;;30.80;;
9294;SDS011;4686;44.496;11.324;2024-01-30T09:32:44;49.17;;;31.90;;
9294;SDS011;4686;44.496;11.324;2024-01-30T09:35:12;43.40;;;30.80;;
9294;SDS011;4686;44.496;11.324;2024-01-30T09:37:39;46.40;;;30.63;;
9294;SDS011;4686;44.496;11.324;2024-01-30T09:40:07;44.37;;;32.57;;
9294;SDS011;4686;44.496;11.324;2024-01-30T09:42:34;49.50;;;34.63;;
9294;SDS011;4686;44.496;11.324;2024-01-30T09:45:02;45.00;;;31.93;;
9294;SDS011;4686;44.496;11.324;2024-01-30T09:47:30;53.30;;;31.63;;
9294;SDS011;4686;44.496;11.324;2024-01-30T09:49:59;49.00;;;32.77;;
9294;SDS011;4686;44.496;11.324;2024-01-30T09:52:28;48.43;;;31.90;;
9294;SDS011;4686;44.496;11.324;2024-01-30T09:54:57;47.13;;;32.43;;
9294;SDS011;4686;44.496;11.324;2024-01-30T09:57:26;45.97;;;31.87;;
9294;SDS011;4686;44.496;11.324;2024-01-30T09:59:53;52.13;;;32.93;;
9294;SDS011;4686;44.496;11.324;2024-01-30T10:02:20;46.90;;;32.00;;
9294;SDS011;4686;44.496;11.324;2024-01-30T10:04:48;53.60;;;32.53;;
9294;SDS011;4686;44.496;11.324;2024-01-30T10:07:17;52.80;;;34.33;;
9294;SDS011;4686;44.496;11.324;2024-01-30T10:09:45;46.30;;;31.87;;
9294;SDS011;4686;44.496;11.324;2024-01-30T10:12:12;46.60;;;33.50;;
9294;SDS011;4686;44.496;11.324;2024-01-30T10:14:39;59.60;;;33.47;;
9294;SDS011;4686;44.496;11.324;2024-01-30T10:17:07;59.20;;;34.30;;
9294;SDS011;4686;44.496;11.324;2024-01-30T10:19:34;48.73;;;34.23;;
9294;SDS011;4686;44.496;11.324;2024-01-30T10:22:02;48.83;;;34.50;;
9294;SDS011;4686;44.496;11.324;2024-01-30T10:24:30;52.83;;;34.13;;
9294;SDS011;4686;44.496;11.324;2024-01-30T10:26:58;56.13;;;33.97;;
9294;SDS011;4686;44.496;11.324;2024-01-30T10:29:25;50.60;;;33.83;;
9294;SDS011;4686;44.496;11.324;2024-01-30T10:31:59;49.17;;;33.43;;
9294;SDS011;4686;44.496;11.324;2024-01-30T10:34:26;60.67;;;34.20;;
9294;SDS011;4686;44.496;11.324;2024-01-30T10:36:56;51.53;;;33.60;;
9294;SDS011;4686;44.496;11.324;2024-01-30T10:39:27;40.83;;;30.60;;
9294;SDS011;4686;44.496;11.324;2024-01-30T10:41:58;46.63;;;30.27;;
9294;SDS011;4686;44.496;11.324;2024-01-30T10:44:26;48.30;;;32.90;;
9294;SDS011;4686;44.496;11.324;2024-01-30T10:47:00;44.00;;;31.87;;
9294;SDS011;4686;44.496;11.324;2024-01-30T10:49:30;46.10;;;31.47;;
9294;SDS011;4686;44.496;11.324;2024-01-30T10:51:58;44.60;;;31.53;;
9294;SDS011;4686;44.496;11.324;2024-01-30T10:54:29;50.07;;;33.23;;
9294;SDS011;4686;44.496;11.324;2024-01-30T10:56:58;46.20;;;31.17;;
9294;SDS011;4686;44.496;11.324;2024-01-30T10:59:30;41.00;;;30.00;;
9294;SDS011;4686;44.496;11.324;2024-01-30T11:01:59;42.37;;;31.23;;
9294;SDS011;4686;44.496;11.324;2024-01-30T11:04:27;44.17;;;32.17;;
9294;SDS011;4686;44.496;11.324;2024-01-30T11:06:54;43.57;;;31.67;;
9294;SDS011;4686;44.496;11.324;2024-01-30T11:09:22;48.90;;;32.83;;
9294;SDS011;4686;44.496;11.324;2024-01-30T11:11:49;52.77;;;32.53;;
9294;SDS011;4686;44.496;11.324;2024-01-30T11:14:23;46.43;;;36.13;;
9294;SDS011;4686;44.496;11.324;2024-01-30T11:16:51;50.90;;;37.90;;
9294;SDS011;4686;44.496;11.324;2024-01-30T11:19:22;51.00;;;37.20;;
9294;SDS011;4686;44.496;11.324;2024-01-30T11:21:52;56.00;;;37.20;;
9294;SDS011;4686;44.496;11.324;2024-01-30T11:24:21;50.27;;;37.03;;
9294;SDS011;4686;44.496;11.324;2024-01-30T11:27:01;49.90;;;36.63;;
9294;SDS011;4686;44.496;11.324;2024-01-30T11:29:31;54.30;;;38.83;;
9294;SDS011;4686;44.496;11.324;2024-01-30T11:32:03;49.77;;;36.67;;
9294;SDS011;4686;44.496;11.324;2024-01-30T11:34:31;53.03;;;36.33;;
9294;SDS011;4686;44.496;11.324;2024-01-30T11:37:01;55.80;;;36.03;;
9294;SDS011;4686;44.496;11.324;2024-01-30T11:39:32;50.30;;;35.63;;
9294;SDS011;4686;44.496;11.324;2024-01-30T11:41:59;53.43;;;37.60;;
9294;SDS011;4686;44.496;11.324;2024-01-30T11:44:30;47.83;;;35.10;;
9294;SDS011;4686;44.496;11.324;2024-01-30T11:46:58;49.83;;;34.90;;
9294;SDS011;4686;44.496;11.324;2024-01-30T11:49:25;46.57;;;34.50;;
9294;SDS011;4686;44.496;11.324;2024-01-30T11:51:52;47.27;;;35.10;;
9294;SDS011;4686;44.496;11.324;2024-01-30T11:54:20;55.90;;;35.43;;
9294;SDS011;4686;44.496;11.324;2024-01-30T11:56:47;52.23;;;35.43;;
9294;SDS011;4686;44.496;11.324;2024-01-30T11:59:15;50.43;;;34.83;;
9294;SDS011;4686;44.496;11.324;2024-01-30T12:01:43;47.97;;;36.40;;
9294;SDS011;4686;44.496;11.324;2024-01-30T12:04:11;46.20;;;35.70;;
9294;SDS011;4686;44.496;11.324;2024-01-30T12:06:38;49.00;;;36.17;;
9294;SDS011;4686;44.496;11.324;2024-01-30T12:09:06;46.27;;;35.00;;
9294;SDS011;4686;44.496;11.324;2024-01-30T12:11:42;49.80;;;36.10;;
9294;SDS011;4686;44.496;11.324;2024-01-30T12:14:10;47.80;;;35.53;;
9294;SDS011;4686;44.496;11.324;2024-01-30T12:16:40;45.03;;;35.70;;
9294;SDS011;4686;44.496;11.324;2024-01-30T12:19:09;47.40;;;35.57;;
9294;SDS011;4686;44.496;11.324;2024-01-30T12:21:37;44.37;;;34.30;;
9294;SDS011;4686;44.496;11.324;2024-01-30T12:24:05;52.10;;;33.97;;
9294;SDS011;4686;44.496;11.324;2024-01-30T12:26:33;46.80;;;32.50;;
9294;SDS011;4686;44.496;11.324;2024-01-30T12:29:03;46.83;;;33.33;;
9294;SDS011;4686;44.496;11.324;2024-01-30T12:31:31;52.00;;;35.80;;
9294;SDS011;4686;44.496;11.324;2024-01-30T12:33:59;44.67;;;32.37;;
9294;SDS011;4686;44.496;11.324;2024-01-30T12:36:28;43.40;;;33.10;;
9294;SDS011;4686;44.496;11.324;2024-01-30T12:38:56;49.37;;;33.40;;
9294;SDS011;4686;44.496;11.324;2024-01-30T12:41:24;70.67;;;48.67;;
9294;SDS011;4686;44.496;11.324;2024-01-30T12:43:53;44.00;;;33.80;;
9294;SDS011;4686;44.496;11.324;2024-01-30T12:46:21;47.37;;;33.50;;
9294;SDS011;4686;44.496;11.324;2024-01-30T12:48:48;44.97;;;32.43;;
9294;SDS011;4686;44.496;11.324;2024-01-30T12:51:15;45.43;;;34.17;;
9294;SDS011;4686;44.496;11.324;2024-01-30T12:53:44;46.23;;;32.87;;
9294;SDS011;4686;44.496;11.324;2024-01-30T12:56:13;42.10;;;30.60;;
9294;SDS011;4686;44.496;11.324;2024-01-30T12:58:40;42.47;;;30.97;;
9294;SDS011;4686;44.496;11.324;2024-01-30T13:01:08;44.83;;;33.00;;
9294;SDS011;4686;44.496;11.324;2024-01-30T13:03:36;45.83;;;33.57;;
9294;SDS011;4686;44.496;11.324;2024-01-30T13:06:03;43.97;;;32.37;;
9294;SDS011;4686;44.496;11.324;2024-01-30T13:08:31;51.47;;;33.23;;
9294;SDS011;4686;44.496;11.324;2024-01-30T13:10:59;44.97;;;32.93;;
9294;SDS011;4686;44.496;11.324;2024-01-30T13:13:26;49.73;;;33.50;;
9294;SDS011;4686;44.496;11.324;2024-01-30T13:15:54;50.67;;;34.87;;
9294;SDS011;4686;44.496;11.324;2024-01-30T13:18:21;46.53;;;34.33;;
9294;SDS011;4686;44.496;11.324;2024-01-30T13:20:49;46.07;;;35.00;;
9294;SDS011;4686;44.496;11.324;2024-01-30T13:23:16;49.97;;;36.53;;
9294;SDS011;4686;44.496;11.324;2024-01-30T13:25:43;47.47;;;34.00;;
9294;SDS011;4686;44.496;11.324;2024-01-30T13:28:12;52.30;;;36.37;;
9294;SDS011;4686;44.496;11.324;2024-01-30T13:30:40;50.93;;;35.00;;
9294;SDS011;4686;44.496;11.324;2024-01-30T13:33:07;50.57;;;35.50;;
9294;SDS011;4686;44.496;11.324;2024-01-30T13:35:35;51.17;;;35.53;;
9294;SDS011;4686;44.496;11.324;2024-01-30T13:38:02;51.70;;;35.07;;
9294;SDS011;4686;44.496;11.324;2024-01-30T13:40:29;45.80;;;34.70;;
9294;SDS011;4686;44.496;11.324;2024-01-30T13:42:57;45.00;;;34.10;;
9294;SDS011;4686;44.496;11.324;2024-01-30T13:45:25;47.43;;;33.73;;
9294;SDS011;4686;44.496;11.324;2024-01-30T13:47:54;49.10;;;33.83;;
9294;SDS011;4686;44.496;11.324;2024-01-30T13:50:21;53.57;;;37.20;;
9294;SDS011;4686;44.496;11.324;2024-01-30T13:52:48;49.03;;;35.50;;
9294;SDS011;4686;44.496;11.324;2024-01-30T13:55:16;52.47;;;36.40;;
9294;SDS011;4686;44.496;11.324;2024-01-30T13:57:43;49.80;;;34.47;;
9294;SDS011;4686;44.496;11.324;2024-01-30T14:00:11;47.83;;;33.40;;
9294;SDS011;4686;44.496;11.324;2024-01-30T14:02:42;50.00;;;32.90;;
9294;SDS011;4686;44.496;11.324;2024-01-30T14:05:09;45.53;;;33.17;;
9294;SDS011;4686;44.496;11.324;2024-01-30T14:07:37;44.93;;;34.20;;
9294;SDS011;4686;44.496;11.324;2024-01-30T14:10:06;46.47;;;34.40;;
9294;SDS011;4686;44.496;11.324;2024-01-30T14:12:33;47.33;;;33.23;;
9294;SDS011;4686;44.496;11.324;2024-01-30T14:15:00;47.53;;;33.97;;
9294;SDS011;4686;44.496;11.324;2024-01-30T14:17:28;46.40;;;32.43;;
9294;SDS011;4686;44.496;11.324;2024-01-30T14:19:56;46.77;;;33.20;;
9294;SDS011;4686;44.496;11.324;2024-01-30T14:22:23;46.63;;;32.80;;
9294;SDS011;4686;44.496;11.324;2024-01-30T14:24:51;46.13;;;32.30;;
9294;SDS011;4686;44.496;11.324;2024-01-30T14:27:18;44.03;;;33.80;;
9294;SDS011;4686;44.496;11.324;2024-01-30T14:29:46;43.90;;;32.20;;
9294;SDS011;4686;44.496;11.324;2024-01-30T14:32:13;46.97;;;32.50;;
9294;SDS011;4686;44.496;11.324;2024-01-30T14:34:40;39.50;;;31.27;;
9294;SDS011;4686;44.496;11.324;2024-01-30T14:37:09;43.90;;;31.63;;
9294;SDS011;4686;44.496;11.324;2024-01-30T14:39:37;45.43;;;33.50;;